Time;durP1;ratioP1;P1;durP2;ratioP2;P2;SDS_P1;SDS_P2;PMS_P1;PMS_P2;Temp;Humidity;BMP_temperature;BMP_pressure;BME280_temperature;BME280_humidity;BME280_pressure;Samples;Min_cycle;Max_cycle;Signal;HPM_P1;HPM_P2
2021/09/03 04:57:46;;;;;;;22.95;4.63;;;33.00;74.40;;;;;;5097701;27;20477;-63
2021/09/03 05:00:17;;;;;;;20.38;5.15;;;32.80;69.40;;;;;;5099862;28;20437;-60
2021/09/03 05:02:44;;;;;;;20.15;5.88;;;32.50;60.90;;;;;;5099208;28;20479;-60
2021/09/03 05:06:46;;;;;;;27.00;7.00;;;32.80;84.40;;;;;;5085337;27;20509;-60
2021/09/03 05:09:14;;;;;;;19.58;7.00;;;32.30;74.90;;;;;;5079259;28;20043;-61
2021/09/03 05:11:41;;;;;;;19.45;6.65;;;;;;;;;;5080206;28;20172;-56
2021/09/03 05:14:07;;;;;;;24.63;6.55;;;32.30;92.50;;;;;;5077828;28;20564;-59
2021/09/03 05:16:34;;;;;;;21.77;6.53;;;31.50;77.20;;;;;;5082134;28;20040;-58
2021/09/03 05:19:00;;;;;;;17.15;6.20;;;32.20;53.00;;;;;;5084374;28;20074;-60
2021/09/03 05:21:27;;;;;;;20.65;5.43;;;;;;;;;;5081051;28;20784;-58
2021/09/03 05:23:53;;;;;;;20.65;5.65;;;32.20;64.70;;;;;;5076474;28;20107;-60
2021/09/03 05:26:20;;;;;;;16.48;4.90;;;32.40;89.00;;;;;;5082446;28;20036;-61
2021/09/03 05:28:46;;;;;;;18.67;5.35;;;32.10;58.90;;;;;;5083942;28;20086;-60
2021/09/03 05:31:13;;;;;;;16.63;6.10;;;32.10;53.50;;;;;;5079272;28;20073;-57
2021/09/03 05:33:39;;;;;;;24.02;6.05;;;32.10;53.80;;;;;;5080737;28;20084;-61
2021/09/03 05:36:06;;;;;;;22.33;6.88;;;32.20;53.70;;;;;;5084807;28;20081;-59
2021/09/03 05:38:33;;;;;;;21.67;7.00;;;32.10;53.70;;;;;;5078936;28;20522;-60
2021/09/03 05:40:59;;;;;;;22.27;7.68;;;32.10;53.80;;;;;;5082163;28;20426;-60
2021/09/03 05:43:26;;;;;;;19.95;7.45;;;32.10;54.10;;;;;;5082064;28;20571;-60
2021/09/03 05:45:52;;;;;;;24.98;8.07;;;32.00;54.20;;;;;;5083688;28;20100;-57
2021/09/03 05:48:19;;;;;;;22.52;8.45;;;31.90;55.00;;;;;;5076266;28;20069;-59
2021/09/03 05:50:45;;;;;;;19.30;7.80;;;31.90;54.40;;;;;;5080344;28;20077;-60
2021/09/03 05:53:12;;;;;;;24.80;7.57;;;31.80;54.60;;;;;;5079775;28;20100;-60
2021/09/03 05:55:38;;;;;;;27.60;7.95;;;31.80;54.80;;;;;;5080147;28;20409;-60
2021/09/03 05:58:05;;;;;;;25.27;7.35;;;31.80;54.80;;;;;;5079848;28;20120;-60
2021/09/03 06:00:31;;;;;;;19.30;6.57;;;31.80;54.80;;;;;;5081801;28;20068;-60
2021/09/03 06:03:00;;;;;;;22.27;6.97;;;31.80;54.90;;;;;;5079802;28;20552;-59
2021/09/03 06:05:26;;;;;;;20.08;6.15;;;31.80;55.20;;;;;;5080339;28;20623;-60
2021/09/03 06:07:53;;;;;;;25.15;7.07;;;31.80;55.20;;;;;;5080909;28;20084;-61
2021/09/03 06:10:20;;;;;;;23.23;6.30;;;31.80;55.10;;;;;;5079618;28;20078;-59
2021/09/03 06:12:48;;;;;;;24.00;6.43;;;31.70;55.40;;;;;;5078204;28;20162;-58
2021/09/03 06:15:14;;;;;;;24.00;7.18;;;31.70;55.40;;;;;;5081885;28;20073;-59
2021/09/03 06:17:41;;;;;;;22.45;6.80;;;31.70;55.60;;;;;;5068709;28;20080;-60
2021/09/03 06:20:10;;;;;;;27.50;6.50;;;31.60;55.60;;;;;;5067359;28;20077;-60
2021/09/03 06:22:36;;;;;;;24.00;6.75;;;31.60;55.80;;;;;;5085632;28;20085;-60
2021/09/03 06:25:04;;;;;;;16.50;6.32;;;31.60;55.80;;;;;;5065164;28;20104;-60
2021/09/03 06:27:30;;;;;;;19.13;5.45;;;31.50;55.80;;;;;;5065226;28;20123;-60
2021/09/03 06:29:58;;;;;;;19.98;5.90;;;31.50;55.90;;;;;;5065335;28;20085;-58
2021/09/03 06:32:27;;;;;;;25.65;5.38;;;31.50;56.10;;;;;;5071051;28;20065;-59
2021/09/03 06:34:56;;;;;;;14.50;5.18;;;31.50;56.20;;;;;;5065374;28;20080;-59
2021/09/03 06:37:25;;;;;;;15.90;4.95;;;31.50;56.30;;;;;;5069196;28;20080;-59
2021/09/03 06:39:52;;;;;;;15.40;4.70;;;31.50;56.50;;;;;;5062958;28;20077;-59
2021/09/03 06:42:19;;;;;;;17.33;4.97;;;31.40;56.60;;;;;;5068096;28;20069;-58
2021/09/03 06:44:46;;;;;;;16.20;4.63;;;31.40;56.70;;;;;;5064963;28;20272;-60
2021/09/03 06:47:14;;;;;;;20.25;4.45;;;31.40;56.90;;;;;;5067880;28;20590;-58
2021/09/03 06:49:41;;;;;;;20.35;4.25;;;31.30;57.00;;;;;;5065639;28;20074;-59
2021/09/03 06:52:09;;;;;;;14.55;3.58;;;31.30;57.30;;;;;;5063430;28;20089;-58
2021/09/03 06:54:38;;;;;;;12.85;3.88;;;31.20;57.30;;;;;;5067200;28;21672;-60
2021/09/03 06:57:05;;;;;;;16.70;4.10;;;31.20;57.50;;;;;;5065344;28;20172;-58
2021/09/03 06:59:33;;;;;;;15.32;4.28;;;31.30;57.40;;;;;;5065064;28;20077;-59
2021/09/03 07:01:59;;;;;;;12.80;3.72;;;31.20;57.40;;;;;;5066500;28;20107;-59
2021/09/03 07:04:26;;;;;;;13.20;4.07;;;31.20;57.50;;;;;;5066286;28;20084;-58
2021/09/03 07:06:53;;;;;;;14.80;3.78;;;31.20;57.80;;;;;;5065792;28;20080;-58
2021/09/03 07:09:20;;;;;;;14.40;3.92;;;31.20;57.80;;;;;;5064456;28;20084;-58
2021/09/03 07:11:46;;;;;;;15.70;4.03;;;31.10;58.10;;;;;;5065485;28;20128;-59
2021/09/03 07:14:13;;;;;;;11.95;3.72;;;31.10;58.50;;;;;;5062160;28;20081;-59
2021/09/03 07:16:40;;;;;;;9.13;3.78;;;31.00;58.80;;;;;;5064534;28;20630;-59
2021/09/03 07:19:06;;;;;;;9.15;3.78;;;31.00;58.80;;;;;;5065098;28;20093;-59
2021/09/03 07:21:33;;;;;;;11.60;4.05;;;30.90;59.00;;;;;;5065733;28;20151;-59
2021/09/03 07:24:00;;;;;;;11.10;4.20;;;30.90;59.10;;;;;;5065567;28;20076;-59
2021/09/03 07:26:28;;;;;;;16.35;3.88;;;30.90;59.30;;;;;;5065591;28;20104;-59
2021/09/03 07:28:56;;;;;;;12.57;4.22;;;30.90;59.50;;;;;;5063646;28;20073;-60
2021/09/03 07:31:23;;;;;;;11.95;3.97;;;30.90;59.60;;;;;;5066096;28;20081;-58
2021/09/03 07:33:50;;;;;;;13.30;3.95;;;30.90;59.80;;;;;;5064027;28;20092;-59
2021/09/03 07:36:17;;;;;;;12.38;4.05;;;30.90;59.90;;;;;;5061237;28;20074;-58
2021/09/03 07:38:44;;;;;;;15.20;4.38;;;30.80;60.00;;;;;;5066349;28;20600;-59
2021/09/03 07:41:10;;;;;;;13.60;4.28;;;30.80;60.40;;;;;;5064077;28;20077;-59
2021/09/03 07:43:37;;;;;;;12.75;3.92;;;30.70;61.80;;;;;;5064682;28;20088;-60
2021/09/03 07:46:04;;;;;;;15.02;4.13;;;30.70;61.20;;;;;;5062996;28;20093;-59
2021/09/03 07:48:31;;;;;;;11.07;4.10;;;30.70;61.60;;;;;;5064810;28;20549;-59
2021/09/03 07:50:58;;;;;;;19.20;5.07;;;30.70;61.60;;;;;;5065271;28;20078;-59
2021/09/03 07:53:24;;;;;;;12.68;4.60;;;30.60;62.00;;;;;;5062406;28;20101;-58
2021/09/03 07:55:51;;;;;;;16.67;4.97;;;30.50;62.40;;;;;;5063909;28;20073;-57
2021/09/03 07:58:18;;;;;;;18.55;5.15;;;30.50;62.90;;;;;;5066672;28;20158;-59
2021/09/03 08:00:44;;;;;;;13.60;5.07;;;30.50;63.40;;;;;;5063217;28;20085;-60
2021/09/03 08:03:11;;;;;;;11.75;4.72;;;30.50;63.60;;;;;;5069770;28;20073;-59
2021/09/03 08:05:38;;;;;;;8.50;4.15;;;30.40;63.50;;;;;;5061086;28;20163;-60
2021/09/03 08:08:08;;;;;;;18.73;4.78;;;30.50;63.70;;;;;;5062926;28;20105;-59
2021/09/03 08:10:35;;;;;;;15.30;5.07;;;30.40;64.30;;;;;;5060814;28;20089;-59
2021/09/03 08:13:04;;;;;;;14.38;4.90;;;30.30;64.70;;;;;;5060682;28;20188;-57
2021/09/03 08:15:32;;;;;;;14.38;5.00;;;30.40;65.30;;;;;;5065328;28;20518;-59
2021/09/03 08:17:59;;;;;;;17.15;5.35;;;30.30;65.70;;;;;;5065784;28;20586;-59
2021/09/03 08:20:27;;;;;;;20.77;5.50;;;30.30;66.20;;;;;;5062923;28;20160;-60
2021/09/03 08:22:53;;;;;;;20.55;5.20;;;30.20;75.10;;;;;;5061173;28;20585;-60
2021/09/03 08:25:21;;;;;;;16.15;5.75;;;30.30;67.50;;;;;;5063721;28;20188;-60
2021/09/03 08:27:49;;;;;;;13.18;4.90;;;30.20;68.30;;;;;;5066863;28;20084;-60
2021/09/03 08:30:16;;;;;;;26.20;5.65;;;30.10;68.50;;;;;;5064839;28;20077;-60
2021/09/03 08:32:43;;;;;;;16.73;6.22;;;30.10;68.90;;;;;;5063541;28;20088;-60
2021/09/03 08:35:10;;;;;;;15.02;6.30;;;30.10;69.80;;;;;;5064413;28;20085;-60
2021/09/03 08:37:39;;;;;;;21.05;7.05;;;30.10;69.30;;;;;;5060241;28;20226;-60
2021/09/03 08:40:07;;;;;;;26.67;8.23;;;30.00;69.90;;;;;;5060029;28;20534;-60
2021/09/03 08:42:36;;;;;;;18.50;7.60;;;30.00;70.30;;;;;;5064033;28;20422;-60
2021/09/03 08:45:03;;;;;;;20.80;7.00;;;30.00;70.70;;;;;;5060655;28;20549;-58
2021/09/03 08:47:29;;;;;;;23.92;8.45;;;30.00;71.40;;;;;;5060886;28;20078;-59
2021/09/03 08:49:56;;;;;;;23.73;8.40;;;30.00;71.20;;;;;;5062335;28;20544;-60
2021/09/03 08:52:23;;;;;;;23.98;8.35;;;30.00;71.60;;;;;;5061661;28;20081;-56
2021/09/03 08:54:49;;;;;;;20.65;8.30;;;30.40;99.90;;;;;;5061116;28;20569;-59
2021/09/03 08:57:16;;;;;;;24.27;8.82;;;30.00;73.00;;;;;;5064557;28;20085;-59
2021/09/03 08:59:43;;;;;;;18.55;8.45;;;30.00;73.50;;;;;;5063966;28;20085;-59
2021/09/03 09:02:18;;;;;;;19.95;8.02;;;30.00;74.10;;;;;;5063028;28;20176;-59
2021/09/03 09:04:46;;;;;;;17.23;7.30;;;30.00;74.60;;;;;;5060856;28;20116;-60
2021/09/03 09:07:13;;;;;;;19.77;6.22;;;29.90;75.10;;;;;;5061297;28;20651;-58
2021/09/03 09:09:42;;;;;;;14.48;6.18;;;29.90;75.80;;;;;;5065688;28;20074;-60
2021/09/03 09:12:14;;;;;;;21.52;5.25;;;29.80;76.90;;;;;;5064285;28;20111;-59
2021/09/03 09:15:01;;;;;;;14.07;5.03;;;29.80;77.40;;;;;;5061181;28;20635;-59
2021/09/03 09:17:45;;;;;;;15.20;5.97;;;29.70;77.90;;;;;;5064901;28;20080;-59
2021/09/03 09:20:14;;;;;;;17.17;6.45;;;29.70;78.30;;;;;;5059674;28;20695;-60
2021/09/03 09:23:04;;;;;;;22.67;7.40;;;29.60;78.80;;;;;;5062900;28;20163;-58
2021/09/03 09:25:36;;;;;;;17.73;5.68;;;29.50;79.30;;;;;;5063703;28;20104;-59
2021/09/03 09:28:20;;;;;;;23.42;6.45;;;29.40;79.60;;;;;;5064855;28;21497;-57
2021/09/03 09:30:49;;;;;;;17.52;5.80;;;29.40;80.10;;;;;;5065675;28;20099;-59
2021/09/03 09:33:18;;;;;;;19.15;6.45;;;29.20;80.20;;;;;;5062734;28;20077;-58
2021/09/03 09:35:50;;;;;;;16.63;6.65;;;29.10;80.50;;;;;;5065381;28;20073;-59
2021/09/03 09:38:24;;;;;;;21.98;5.97;;;29.00;81.30;;;;;;5062311;28;20548;-58
2021/09/03 09:40:59;;;;;;;16.27;5.45;;;29.00;81.70;;;;;;5063498;28;20151;-59
2021/09/03 09:43:35;;;;;;;16.50;5.88;;;29.00;82.20;;;;;;5065466;28;20084;-59
2021/09/03 09:46:15;;;;;;;16.50;5.43;;;29.00;82.60;;;;;;5060367;28;20100;-59
2021/09/03 09:48:52;;;;;;;19.05;6.43;;;29.00;83.80;;;;;;5066540;28;20530;-58
2021/09/03 09:51:22;;;;;;;20.63;6.15;;;29.00;84.00;;;;;;5062922;28;20112;-59
2021/09/03 09:54:03;;;;;;;18.52;5.97;;;28.90;84.20;;;;;;5068016;28;20069;-59
2021/09/03 09:56:34;;;;;;;20.92;5.97;;;28.80;85.40;;;;;;5066350;28;20085;-59
2021/09/03 09:59:03;;;;;;;15.60;5.82;;;28.80;85.30;;;;;;5059897;28;20090;-58
2021/09/03 10:01:31;;;;;;;14.10;5.40;;;28.80;85.90;;;;;;5063549;28;20077;-59
2021/09/03 10:04:00;;;;;;;17.45;5.75;;;28.80;86.40;;;;;;5068793;28;20234;-57
2021/09/03 10:06:29;;;;;;;21.50;5.97;;;28.70;87.10;;;;;;5067719;28;20128;-56
2021/09/03 10:08:57;;;;;;;15.85;5.60;;;28.70;87.50;;;;;;5063740;28;20541;-57
2021/09/03 10:11:24;;;;;;;16.25;5.70;;;28.70;88.70;;;;;;5067795;28;20089;-59
2021/09/03 10:13:51;;;;;;;20.80;6.28;;;28.70;88.10;;;;;;5067992;28;20096;-59
2021/09/03 10:16:18;;;;;;;23.25;6.07;;;28.60;88.70;;;;;;5066863;28;20092;-59
2021/09/03 10:18:49;;;;;;;17.55;5.78;;;28.70;89.00;;;;;;5064557;28;20077;-59
2021/09/03 10:21:19;;;;;;;15.68;5.50;;;28.70;88.90;;;;;;5065310;28;20530;-58
2021/09/03 10:23:55;;;;;;;18.17;6.78;;;28.70;89.40;;;;;;5065580;28;20092;-58
2021/09/03 10:26:31;;;;;;;19.10;6.67;;;28.70;90.00;;;;;;5066683;28;20208;-58
2021/09/03 10:29:34;;;;;;;15.07;6.18;;;28.60;89.60;;;;;;5066700;28;20433;-55
2021/09/03 10:32:07;;;;;;;18.30;7.60;;;28.60;89.80;;;;;;5064357;28;20090;-57
2021/09/03 10:34:42;;;;;;;18.75;6.78;;;28.60;90.00;;;;;;5065662;28;20081;-59
2021/09/03 10:37:15;;;;;;;16.93;7.10;;;28.70;91.90;;;;;;5065787;28;20524;-59
2021/09/03 10:39:47;;;;;;;15.57;7.07;;;29.00;96.60;;;;;;5067583;28;20567;-58
2021/09/03 10:42:35;;;;;;;20.05;7.10;;;28.50;90.40;;;;;;5067405;28;20419;-59
2021/09/03 10:45:11;;;;;;;22.80;7.05;;;28.50;90.70;;;;;;5066118;28;20572;-59
2021/09/03 10:48:07;;;;;;;22.05;7.45;;;28.50;90.90;;;;;;5061093;28;20079;-59
2021/09/03 10:50:35;;;;;;;22.77;7.75;;;28.50;91.00;;;;;;5062361;28;20126;-59
2021/09/03 10:53:04;;;;;;;18.02;6.78;;;28.50;91.00;;;;;;5063495;28;20072;-59
2021/09/03 10:55:55;;;;;;;16.75;6.57;;;28.50;91.20;;;;;;5064647;28;20623;-59
2021/09/03 10:58:37;;;;;;;22.42;6.90;;;28.50;91.30;;;;;;5065542;28;20086;-58
2021/09/03 11:01:12;;;;;;;17.00;6.55;;;28.40;91.60;;;;;;5069043;28;20081;-59
2021/09/03 11:03:51;;;;;;;18.23;7.07;;;28.30;92.20;;;;;;5063428;28;20091;-59
2021/09/03 11:06:27;;;;;;;21.58;6.15;;;28.30;92.20;;;;;;5066431;28;20116;-59
2021/09/03 11:09:17;;;;;;;17.88;6.90;;;28.20;99.90;;;;;;5065501;28;20068;-59
2021/09/03 11:11:46;;;;;;;24.40;6.55;;;28.10;92.50;;;;;;5067349;28;20168;-59
2021/09/03 11:14:27;;;;;;;18.45;6.60;;;28.20;92.90;;;;;;5065090;28;20080;-59
2021/09/03 11:16:57;;;;;;;18.83;6.90;;;28.10;99.90;;;;;;5062832;28;20081;-59
2021/09/03 11:19:27;;;;;;;18.40;6.60;;;28.10;93.70;;;;;;5065276;28;21331;-55
2021/09/03 11:21:57;;;;;;;21.45;8.05;;;28.10;93.50;;;;;;5060958;28;20084;-59
2021/09/03 11:24:35;;;;;;;21.98;7.80;;;28.10;93.80;;;;;;5063603;28;20077;-59
2021/09/03 11:27:06;;;;;;;17.00;6.45;;;28.20;93.90;;;;;;5064368;28;20097;-59
2021/09/03 11:29:44;;;;;;;18.80;6.95;;;28.30;94.00;;;;;;5062966;28;20080;-59
2021/09/03 11:32:16;;;;;;;24.23;7.32;;;28.30;93.90;;;;;;5062923;28;20168;-58
2021/09/03 11:35:08;;;;;;;16.38;7.20;;;28.30;93.90;;;;;;5065837;28;20084;-59
2021/09/03 11:37:49;;;;;;;22.15;7.50;;;28.20;94.10;;;;;;5066767;28;20088;-59
2021/09/03 11:40:20;;;;;;;18.52;7.35;;;28.20;94.20;;;;;;5066175;28;20073;-59
2021/09/03 11:42:50;;;;;;;20.65;7.32;;;28.20;94.30;;;;;;5069079;28;20088;-59
2021/09/03 11:45:31;;;;;;;18.77;7.35;;;28.20;94.30;;;;;;5063140;28;20188;-59
2021/09/03 11:47:59;;;;;;;16.80;6.57;;;28.20;94.30;;;;;;5064267;28;20073;-59
2021/09/03 11:50:33;;;;;;;22.67;7.70;;;28.10;94.40;;;;;;5062751;28;20081;-59
2021/09/03 11:53:04;;;;;;;22.35;7.28;;;28.10;94.50;;;;;;5065126;28;20069;-59
2021/09/03 11:55:42;;;;;;;18.73;6.85;;;28.10;94.60;;;;;;5060686;28;20140;-52
2021/09/03 11:58:16;;;;;;;17.90;6.47;;;28.10;94.40;;;;;;5064192;28;21567;-58
2021/09/03 12:00:47;;;;;;;19.95;7.00;;;28.20;94.90;;;;;;5062560;28;20138;-59
2021/09/03 12:03:16;;;;;;;18.42;6.85;;;28.20;95.00;;;;;;5060903;28;20069;-58
2021/09/03 12:05:54;;;;;;;20.20;6.78;;;28.20;95.00;;;;;;5065701;28;20112;-57
2021/09/03 12:08:23;;;;;;;24.42;6.80;;;28.10;95.40;;;;;;5063234;28;20073;-57
2021/09/03 12:10:50;;;;;;;25.75;6.95;;;28.10;95.50;;;;;;5063604;28;20077;-56
2021/09/03 12:13:22;;;;;;;16.42;6.35;;;28.10;95.80;;;;;;5066189;28;20085;-58
2021/09/03 12:16:01;;;;;;;16.70;5.72;;;28.00;96.00;;;;;;5061781;28;20108;-59
2021/09/03 12:18:38;;;;;;;21.80;6.60;;;28.00;96.40;;;;;;5064156;28;20081;-59
2021/09/03 12:21:11;;;;;;;15.90;5.88;;;27.90;96.70;;;;;;5067133;28;20517;-57
2021/09/03 12:24:38;;;;;;;18.90;5.65;;;27.90;96.50;;;;;;5129395;27;20168;-57
2021/09/03 12:27:13;;;;;;;21.95;7.30;;;27.80;96.90;;;;;;5132291;27;20084;-58
2021/09/03 12:29:39;;;;;;;18.23;6.65;;;27.90;97.10;;;;;;5133369;27;20531;-58
2021/09/03 12:32:07;;;;;;;18.70;6.60;;;28.00;97.10;;;;;;5135694;27;20128;-59
2021/09/03 12:34:35;;;;;;;16.33;6.75;;;27.90;97.00;;;;;;5130411;27;20101;-58
2021/09/03 12:37:08;;;;;;;21.52;7.22;;;28.00;96.80;;;;;;5130632;27;20117;-58
2021/09/03 12:39:36;;;;;;;25.33;7.00;;;27.90;96.70;;;;;;5128542;27;20072;-55
2021/09/03 12:42:12;;;;;;;16.85;6.47;;;27.90;96.80;;;;;;5130274;27;20155;-58
2021/09/03 12:44:38;;;;;;;;;;;27.90;96.90;;;;;;5137889;27;20098;-59
2021/09/03 12:47:05;;;;;;;18.63;6.18;;;27.90;97.20;;;;;;5131023;27;20033;-56
2021/09/03 12:50:14;;;;;;;17.95;6.95;;;27.90;96.70;;;;;;5131169;27;20411;-58
2021/09/03 12:52:40;;;;;;;20.70;6.93;;;27.90;97.10;;;;;;5131693;27;20079;-58
2021/09/03 12:55:07;;;;;;;22.17;7.47;;;27.90;97.20;;;;;;5133527;27;20074;-59
2021/09/03 12:57:35;;;;;;;18.35;6.05;;;27.80;97.30;;;;;;5132271;27;20072;-56
2021/09/03 13:00:02;;;;;;;19.58;6.50;;;27.80;97.60;;;;;;5131249;27;20083;-59
2021/09/03 13:02:29;;;;;;;17.75;6.18;;;27.80;97.80;;;;;;5132035;27;20112;-56
2021/09/03 13:04:55;;;;;;;19.73;6.10;;;27.80;97.60;;;;;;5130107;27;20083;-57
2021/09/03 13:07:22;;;;;;;20.98;7.13;;;27.80;98.00;;;;;;5133490;27;20071;-57
2021/09/03 13:09:48;;;;;;;18.73;5.72;;;27.80;98.00;;;;;;5132955;27;20091;-58
2021/09/03 13:12:15;;;;;;;20.73;6.43;;;27.90;98.10;;;;;;5132097;27;20072;-58
2021/09/03 13:14:41;;;;;;;19.15;5.97;;;27.80;97.90;;;;;;5132291;27;20078;-56
2021/09/03 13:17:08;;;;;;;29.70;6.88;;;27.70;97.90;;;;;;5132075;27;20076;-58
2021/09/03 13:19:34;;;;;;;27.00;7.07;;;27.80;98.00;;;;;;5133878;27;20068;-58
2021/09/03 13:23:28;;;;;;;21.40;7.20;;;27.80;97.70;;;;;;5116061;27;20499;-57
2021/09/03 13:25:55;;;;;;;26.33;7.03;;;27.80;98.30;;;;;;5096106;28;20073;-58
2021/09/03 13:28:23;;;;;;;24.20;6.75;;;27.80;98.10;;;;;;5098203;28;20087;-59
2021/09/03 13:30:50;;;;;;;25.13;6.97;;;27.80;97.80;;;;;;5106171;28;20138;-57
2021/09/03 13:34:32;;;;;;;27.45;6.50;;;27.90;97.20;;;;;;5133506;27;20391;-56
2021/09/03 13:36:59;;;;;;;22.95;7.30;;;27.90;97.80;;;;;;5131523;27;20079;-58
2021/09/03 13:39:25;;;;;;;23.48;7.22;;;27.80;97.50;;;;;;5130627;27;20202;-58
2021/09/03 13:41:52;;;;;;;29.05;8.07;;;27.90;97.60;;;;;;5129868;27;20075;-59
2021/09/03 13:44:18;;;;;;;26.75;7.20;;;27.90;97.30;;;;;;5133138;27;20094;-55
2021/09/03 13:46:45;;;;;;;29.45;7.05;;;27.90;97.30;;;;;;5111440;27;20072;-59
2021/09/03 13:49:11;;;;;;;22.73;6.70;;;27.90;97.60;;;;;;5129673;27;20159;-59
2021/09/03 13:51:38;;;;;;;30.45;7.20;;;28.00;97.40;;;;;;5132106;27;20584;-58
2021/09/03 13:54:04;;;;;;;30.77;8.10;;;27.90;98.30;;;;;;5133055;27;20153;-59
2021/09/03 13:56:32;;;;;;;36.08;9.02;;;28.00;97.90;;;;;;5133147;27;20543;-58
2021/09/03 13:58:58;;;;;;;30.80;8.20;;;27.90;97.40;;;;;;5133171;27;20075;-58
2021/09/03 14:01:25;;;;;;;35.63;8.25;;;27.90;97.30;;;;;;5135097;27;20160;-59
2021/09/03 14:03:51;;;;;;;29.48;9.57;;;28.00;97.30;;;;;;5114043;27;20080;-60
2021/09/03 14:06:19;;;;;;;44.00;10.07;;;28.00;97.20;;;;;;5133919;27;20456;-55
2021/09/03 14:08:46;;;;;;;38.67;11.05;;;28.00;97.20;;;;;;5130795;27;20125;-59
2021/09/03 14:11:12;;;;;;;36.40;10.82;;;28.00;97.00;;;;;;5130229;27;20548;-56
2021/09/03 14:13:39;;;;;;;41.75;10.80;;;28.00;97.10;;;;;;5137539;27;20102;-59
2021/09/03 14:16:05;;;;;;;41.20;10.82;;;28.00;97.20;;;;;;5129650;27;20121;-59
2021/09/03 14:18:32;;;;;;;42.38;10.02;;;28.00;97.20;;;;;;5126217;27;20459;-57
2021/09/03 14:20:59;;;;;;;40.90;10.85;;;28.00;98.60;;;;;;5132665;27;20064;-53
2021/09/03 14:23:25;;;;;;;38.88;11.18;;;28.10;97.30;;;;;;5134787;27;20072;-54
2021/09/03 14:25:52;;;;;;;32.58;9.75;;;28.10;97.30;;;;;;5129397;27;20079;-55
2021/09/03 14:28:18;;;;;;;36.33;10.55;;;28.00;98.70;;;;;;5134997;27;20071;-55
2021/09/03 14:30:45;;;;;;;33.45;10.15;;;28.10;98.60;;;;;;5139591;27;20056;-60
2021/09/03 14:33:12;;;;;;;44.45;10.73;;;28.20;99.50;;;;;;5132559;27;20538;-57
2021/09/03 14:35:39;;;;;;;40.33;10.10;;;28.20;96.80;;;;;;5131098;27;20428;-56
2021/09/03 14:38:06;;;;;;;46.35;11.75;;;28.30;97.20;;;;;;5136348;27;20119;-56
2021/09/03 14:40:33;;;;;;;48.88;10.70;;;28.40;97.50;;;;;;5133177;27;20108;-59
2021/09/03 14:43:00;;;;;;;41.47;11.15;;;28.40;96.00;;;;;;5132309;27;20067;-58
2021/09/03 14:45:26;;;;;;;45.08;12.73;;;28.40;96.00;;;;;;5124134;27;20163;-57
2021/09/03 14:47:53;;;;;;;58.45;13.55;;;28.40;96.80;;;;;;5116316;27;20057;-57
2021/09/03 14:50:20;;;;;;;58.72;13.35;;;28.50;97.00;;;;;;5119458;27;20055;-60
2021/09/03 14:52:47;;;;;;;45.75;11.52;;;28.40;99.90;;;;;;5119222;27;20092;-59
2021/09/03 14:55:14;;;;;;;51.58;11.35;;;28.40;95.60;;;;;;5116809;27;20064;-58
2021/09/03 14:57:40;;;;;;;53.83;12.20;;;28.50;95.20;;;;;;5116667;27;20074;-59
2021/09/03 15:00:08;;;;;;;60.25;12.13;;;28.40;95.70;;;;;;5116412;27;20091;-56
2021/09/03 15:02:34;;;;;;;57.58;11.68;;;28.60;94.20;;;;;;5125780;27;20068;-57
2021/09/03 15:05:01;;;;;;;58.70;12.48;;;28.50;94.60;;;;;;5118602;27;20068;-55
2021/09/03 15:07:28;;;;;;;44.10;11.98;;;28.60;93.50;;;;;;5113828;27;20062;-55
2021/09/03 15:09:54;;;;;;;49.00;11.93;;;28.70;94.40;;;;;;5113447;27;20068;-57
2021/09/03 15:12:21;;;;;;;55.75;11.20;;;28.80;93.40;;;;;;5118840;27;20064;-57
2021/09/03 15:14:47;;;;;;;57.67;11.45;;;28.80;93.20;;;;;;5103901;27;20437;-55
2021/09/03 15:17:14;;;;;;;56.13;13.60;;;28.90;92.80;;;;;;5116309;27;20235;-58
2021/09/03 15:19:40;;;;;;;47.42;12.32;;;28.90;92.60;;;;;;5119378;27;20129;-55
2021/09/03 15:22:09;;;;;;;51.63;13.43;;;29.00;93.00;;;;;;5119128;27;20066;-57
2021/09/03 15:24:35;;;;;;;54.55;12.70;;;29.10;92.10;;;;;;5117805;27;20073;-57
2021/09/03 15:27:04;;;;;;;62.88;12.02;;;29.30;91.50;;;;;;5116386;27;20063;-56
2021/09/03 15:29:31;;;;;;;64.13;13.52;;;29.30;91.40;;;;;;5114413;27;20544;-56
2021/09/03 15:31:57;;;;;;;361.35;39.70;;;;;;;;;;5117720;27;20065;-59
2021/09/03 15:34:24;;;;;;;54.13;13.75;;;29.40;90.40;;;;;;5119543;27;20108;-57
2021/09/03 15:36:57;;;;;;;60.50;14.45;;;29.50;90.20;;;;;;5112857;27;20060;-58
2021/09/03 15:39:24;;;;;;;63.60;13.80;;;29.70;90.10;;;;;;5099975;27;20436;-57
2021/09/03 15:41:50;;;;;;;43.88;13.45;;;29.90;89.60;;;;;;5115569;27;20521;-58
2021/09/03 15:44:17;;;;;;;62.70;14.07;;;30.00;86.70;;;;;;5121547;27;20121;-56
2021/09/03 15:46:44;;;;;;;50.75;13.50;;;30.20;87.10;;;;;;5114414;27;20104;-56
2021/09/03 15:49:12;;;;;;;44.88;13.30;;;30.50;85.80;;;;;;5116627;27;20079;-59
2021/09/03 15:51:39;;;;;;;39.75;11.98;;;30.80;83.50;;;;;;5120226;27;20417;-58
2021/09/03 15:54:06;;;;;;;45.83;13.68;;;31.20;82.10;;;;;;5112142;27;20569;-58
2021/09/03 15:56:32;;;;;;;48.55;14.07;;;31.40;80.30;;;;;;5120820;27;20087;-57
2021/09/03 15:58:59;;;;;;;42.22;13.13;;;31.60;79.70;;;;;;5117507;27;20208;-58
2021/09/03 16:01:25;;;;;;;51.95;12.60;;;31.90;77.50;;;;;;5114872;27;20128;-59
2021/09/03 16:03:51;;;;;;;55.30;13.90;;;32.40;76.10;;;;;;5119633;27;20080;-56
2021/09/03 16:06:18;;;;;;;44.50;13.80;;;32.90;73.90;;;;;;5111111;27;20076;-58
2021/09/03 16:08:46;;;;;;;36.97;12.73;;;33.20;69.80;;;;;;5111454;27;20165;-58
2021/09/03 16:11:13;;;;;;;38.95;12.82;;;33.30;68.90;;;;;;5109973;27;20073;-59
2021/09/03 16:13:40;;;;;;;41.58;14.05;;;33.50;69.20;;;;;;5115024;27;20420;-60
2021/09/03 16:16:07;;;;;;;81.32;17.77;;;33.90;67.60;;;;;;5097678;27;20042;-60
2021/09/03 16:18:34;;;;;;;37.67;12.25;;;34.30;65.90;;;;;;5111672;27;20179;-55
2021/09/03 16:21:01;;;;;;;43.28;14.30;;;34.70;64.10;;;;;;5114433;27;20545;-59
2021/09/03 16:23:27;;;;;;;50.45;14.63;;;34.80;62.70;;;;;;5113347;27;20520;-59
2021/09/03 16:25:54;;;;;;;50.80;15.75;;;34.50;63.20;;;;;;5112497;27;20076;-61
2021/09/03 16:28:21;;;;;;;38.05;12.18;;;34.70;61.80;;;;;;5114627;27;21514;-59
2021/09/03 16:30:48;;;;;;;39.15;12.80;;;35.30;66.60;;;;;;5116275;27;20489;-60
2021/09/03 16:33:14;;;;;;;40.92;12.82;;;35.40;57.50;;;;;;5118339;27;20117;-54
2021/09/03 16:35:41;;;;;;;41.35;11.48;;;35.50;57.30;;;;;;5118870;27;20076;-58
2021/09/03 16:38:09;;;;;;;37.63;12.88;;;36.20;56.80;;;;;;5113530;27;20075;-57
2021/09/03 16:40:35;;;;;;;38.67;14.00;;;36.80;54.70;;;;;;5094242;28;20068;-58
2021/09/03 16:43:02;;;;;;;55.28;14.13;;;36.80;54.80;;;;;;5121204;27;20143;-58
2021/09/03 16:45:29;;;;;;;43.78;12.65;;;37.30;53.60;;;;;;5114481;27;20077;-58
2021/09/03 16:47:55;;;;;;;36.60;12.07;;;37.20;53.30;;;;;;5114179;27;20083;-58
2021/09/03 16:50:21;;;;;;;31.15;12.93;;;37.40;52.40;;;;;;5110523;27;20078;-57
2021/09/03 16:52:48;;;;;;;28.20;11.07;;;37.40;51.80;;;;;;5114589;27;20096;-56
2021/09/03 16:55:15;;;;;;;35.50;12.23;;;37.60;51.20;;;;;;5112921;27;20083;-57
2021/09/03 16:57:41;;;;;;;35.97;11.45;;;37.40;50.80;;;;;;5117239;27;20080;-56
2021/09/03 17:00:09;;;;;;;21.67;10.00;;;37.00;51.70;;;;;;5117322;27;20542;-55
2021/09/03 17:02:35;;;;;;;37.08;10.05;;;37.20;51.40;;;;;;5072078;28;20064;-54
2021/09/03 17:05:02;;;;;;;57.53;14.15;;;37.40;51.20;;;;;;5101155;27;20543;-57
2021/09/03 17:07:29;;;;;;;21.23;8.85;;;37.90;50.60;;;;;;5116051;27;20068;-57
2021/09/03 17:09:55;;;;;;;22.98;8.80;;;38.40;50.00;;;;;;5110844;27;20156;-58
2021/09/03 17:12:22;;;;;;;60.42;13.82;;;39.10;49.40;;;;;;5114989;27;20529;-56
2021/09/03 17:14:48;;;;;;;35.50;9.63;;;39.20;48.30;;;;;;5111894;27;20539;-58
2021/09/03 17:17:15;;;;;;;33.15;9.65;;;39.30;47.80;;;;;;5114619;27;20432;-58
2021/09/03 17:19:41;;;;;;;27.42;9.55;;;39.50;47.50;;;;;;5115826;27;20537;-57
2021/09/03 17:22:08;;;;;;;29.00;9.57;;;39.70;47.00;;;;;;5114967;27;20087;-56
2021/09/03 17:24:34;;;;;;;31.50;9.52;;;39.80;47.10;;;;;;5110650;27;20128;-58
2021/09/03 17:27:01;;;;;;;25.45;9.07;;;39.70;46.40;;;;;;5095203;28;20108;-58
2021/09/03 17:29:27;;;;;;;35.40;9.30;;;40.00;46.40;;;;;;5115362;27;20114;-58
2021/09/03 17:31:54;;;;;;;26.45;9.70;;;40.00;45.00;;;;;;5113234;28;20072;-58
2021/09/03 17:34:21;;;;;;;40.78;8.88;;;39.70;45.50;;;;;;5115910;28;20123;-54
2021/09/03 17:36:47;;;;;;;20.95;8.65;;;39.80;45.90;;;;;;5113050;28;20525;-57
2021/09/03 17:39:14;;;;;;;19.85;8.20;;;39.60;45.40;;;;;;5109427;28;20112;-56
2021/09/03 17:41:40;;;;;;;241.77;18.83;;;39.60;45.40;;;;;;5113611;28;20597;-59
2021/09/03 17:44:07;;;;;;;24.42;8.70;;;39.80;46.20;;;;;;5112558;28;20524;-58
2021/09/03 17:46:33;;;;;;;181.38;18.75;;;39.80;45.10;;;;;;5115293;28;20076;-59